sensor_id;sensor_type;location;lat;lon;timestamp;P1;durP1;ratioP1;P2;durP2;ratioP2
48052;SDS011;33824;51.600;5.718;2023-11-21T00:01:54;28.20;;;8.07;;
48052;SDS011;33824;51.600;5.718;2023-11-21T00:04:20;16.27;;;7.25;;
48052;SDS011;33824;51.600;5.718;2023-11-21T00:06:46;15.10;;;7.00;;
48052;SDS011;33824;51.600;5.718;2023-11-21T00:09:12;17.33;;;8.00;;
48052;SDS011;33824;51.600;5.718;2023-11-21T00:11:40;16.55;;;7.53;;
48052;SDS011;33824;51.600;5.718;2023-11-21T00:14:06;17.88;;;7.60;;
48052;SDS011;33824;51.600;5.718;2023-11-21T00:16:33;21.00;;;8.05;;
48052;SDS011;33824;51.600;5.718;2023-11-21T00:18:59;14.15;;;7.15;;
48052;SDS011;33824;51.600;5.718;2023-11-21T00:21:25;15.63;;;7.97;;
48052;SDS011;33824;51.600;5.718;2023-11-21T00:23:50;16.10;;;7.88;;
48052;SDS011;33824;51.600;5.718;2023-11-21T00:26:16;17.67;;;8.18;;
48052;SDS011;33824;51.600;5.718;2023-11-21T00:28:42;16.13;;;8.35;;
48052;SDS011;33824;51.600;5.718;2023-11-21T00:31:10;18.17;;;8.07;;
48052;SDS011;33824;51.600;5.718;2023-11-21T00:33:35;22.10;;;8.73;;
48052;SDS011;33824;51.600;5.718;2023-11-21T00:36:01;14.77;;;7.82;;
48052;SDS011;33824;51.600;5.718;2023-11-21T00:38:27;20.77;;;8.20;;
48052;SDS011;33824;51.600;5.718;2023-11-21T00:40:52;23.95;;;8.27;;
48052;SDS011;33824;51.600;5.718;2023-11-21T00:43:24;21.25;;;8.05;;
48052;SDS011;33824;51.600;5.718;2023-11-21T00:45:49;17.27;;;7.40;;
48052;SDS011;33824;51.600;5.718;2023-11-21T00:48:15;17.42;;;8.35;;
48052;SDS011;33824;51.600;5.718;2023-11-21T00:50:40;22.17;;;8.27;;
48052;SDS011;33824;51.600;5.718;2023-11-21T00:53:06;17.70;;;7.93;;
48052;SDS011;33824;51.600;5.718;2023-11-21T00:55:32;19.67;;;8.45;;
48052;SDS011;33824;51.600;5.718;2023-11-21T00:57:58;20.90;;;8.38;;
48052;SDS011;33824;51.600;5.718;2023-11-21T01:00:25;23.63;;;7.63;;
48052;SDS011;33824;51.600;5.718;2023-11-21T01:02:50;15.07;;;8.20;;
48052;SDS011;33824;51.600;5.718;2023-11-21T01:05:16;25.80;;;8.93;;
48052;SDS011;33824;51.600;5.718;2023-11-21T01:07:42;20.27;;;7.82;;
48052;SDS011;33824;51.600;5.718;2023-11-21T01:10:07;24.13;;;7.82;;
48052;SDS011;33824;51.600;5.718;2023-11-21T01:12:35;17.40;;;8.15;;
48052;SDS011;33824;51.600;5.718;2023-11-21T01:15:02;22.42;;;8.30;;
48052;SDS011;33824;51.600;5.718;2023-11-21T01:17:29;20.63;;;9.38;;
48052;SDS011;33824;51.600;5.718;2023-11-21T01:19:54;19.65;;;8.93;;
48052;SDS011;33824;51.600;5.718;2023-11-21T01:22:21;26.90;;;9.05;;
48052;SDS011;33824;51.600;5.718;2023-11-21T01:24:51;24.50;;;9.05;;
48052;SDS011;33824;51.600;5.718;2023-11-21T01:27:17;24.00;;;8.85;;
48052;SDS011;33824;51.600;5.718;2023-11-21T01:29:43;25.30;;;9.38;;
48052;SDS011;33824;51.600;5.718;2023-11-21T01:32:10;19.20;;;8.85;;
48052;SDS011;33824;51.600;5.718;2023-11-21T01:34:36;20.67;;;9.20;;
48052;SDS011;33824;51.600;5.718;2023-11-21T01:37:02;25.90;;;9.68;;
48052;SDS011;33824;51.600;5.718;2023-11-21T01:39:29;29.67;;;9.05;;
48052;SDS011;33824;51.600;5.718;2023-11-21T01:41:55;24.77;;;8.45;;
48052;SDS011;33824;51.600;5.718;2023-11-21T01:44:23;47.90;;;9.85;;
48052;SDS011;33824;51.600;5.718;2023-11-21T01:46:50;61.33;;;10.00;;
48052;SDS011;33824;51.600;5.718;2023-11-21T01:49:16;55.80;;;9.68;;
48052;SDS011;33824;51.600;5.718;2023-11-21T01:51:44;65.35;;;9.57;;
48052;SDS011;33824;51.600;5.718;2023-11-21T01:54:12;51.55;;;8.70;;
48052;SDS011;33824;51.600;5.718;2023-11-21T01:56:38;44.67;;;9.25;;
48052;SDS011;33824;51.600;5.718;2023-11-21T01:59:04;48.72;;;8.95;;
48052;SDS011;33824;51.600;5.718;2023-11-21T02:01:30;64.28;;;9.10;;
48052;SDS011;33824;51.600;5.718;2023-11-21T02:03:56;45.08;;;9.80;;
48052;SDS011;33824;51.600;5.718;2023-11-21T02:06:22;50.85;;;9.30;;
48052;SDS011;33824;51.600;5.718;2023-11-21T02:08:47;63.42;;;9.57;;
48052;SDS011;33824;51.600;5.718;2023-11-21T02:11:14;58.42;;;8.63;;
48052;SDS011;33824;51.600;5.718;2023-11-21T02:13:43;48.75;;;9.40;;
48052;SDS011;33824;51.600;5.718;2023-11-21T02:16:09;47.20;;;11.27;;
48052;SDS011;33824;51.600;5.718;2023-11-21T02:18:38;46.72;;;11.75;;
48052;SDS011;33824;51.600;5.718;2023-11-21T02:21:04;37.60;;;10.32;;
48052;SDS011;33824;51.600;5.718;2023-11-21T02:23:30;43.63;;;10.43;;
48052;SDS011;33824;51.600;5.718;2023-11-21T02:25:56;33.55;;;10.18;;
48052;SDS011;33824;51.600;5.718;2023-11-21T02:28:21;56.72;;;9.45;;
48052;SDS011;33824;51.600;5.718;2023-11-21T02:30:51;71.13;;;9.82;;
48052;SDS011;33824;51.600;5.718;2023-11-21T02:33:21;73.85;;;10.23;;
48052;SDS011;33824;51.600;5.718;2023-11-21T02:35:47;75.43;;;9.65;;
48052;SDS011;33824;51.600;5.718;2023-11-21T02:38:15;46.75;;;9.13;;
48052;SDS011;33824;51.600;5.718;2023-11-21T02:40:42;71.85;;;8.82;;
48052;SDS011;33824;51.600;5.718;2023-11-21T02:43:08;81.07;;;9.77;;
48052;SDS011;33824;51.600;5.718;2023-11-21T02:45:34;106.40;;;10.73;;
48052;SDS011;33824;51.600;5.718;2023-11-21T02:47:59;84.07;;;9.40;;
48052;SDS011;33824;51.600;5.718;2023-11-21T02:50:25;48.90;;;9.10;;
48052;SDS011;33824;51.600;5.718;2023-11-21T02:52:52;81.50;;;9.85;;
48052;SDS011;33824;51.600;5.718;2023-11-21T02:55:17;83.07;;;9.70;;
48052;SDS011;33824;51.600;5.718;2023-11-21T02:57:43;71.22;;;9.40;;
48052;SDS011;33824;51.600;5.718;2023-11-21T03:00:09;92.82;;;9.63;;
48052;SDS011;33824;51.600;5.718;2023-11-21T03:02:40;89.83;;;9.80;;
48052;SDS011;33824;51.600;5.718;2023-11-21T03:05:06;70.68;;;9.30;;
48052;SDS011;33824;51.600;5.718;2023-11-21T03:07:34;71.97;;;8.82;;
48052;SDS011;33824;51.600;5.718;2023-11-21T03:10:00;78.10;;;8.98;;
48052;SDS011;33824;51.600;5.718;2023-11-21T03:12:26;89.82;;;9.15;;
48052;SDS011;33824;51.600;5.718;2023-11-21T03:14:51;52.85;;;8.45;;
48052;SDS011;33824;51.600;5.718;2023-11-21T03:17:17;54.25;;;8.23;;
48052;SDS011;33824;51.600;5.718;2023-11-21T03:19:42;49.05;;;8.70;;
48052;SDS011;33824;51.600;5.718;2023-11-21T03:22:08;66.47;;;8.07;;
48052;SDS011;33824;51.600;5.718;2023-11-21T03:24:34;47.97;;;7.60;;
48052;SDS011;33824;51.600;5.718;2023-11-21T03:26:59;70.18;;;7.80;;
48052;SDS011;33824;51.600;5.718;2023-11-21T03:29:25;57.85;;;7.97;;
48052;SDS011;33824;51.600;5.718;2023-11-21T03:31:51;54.97;;;7.95;;
48052;SDS011;33824;51.600;5.718;2023-11-21T03:34:25;31.65;;;7.45;;
48052;SDS011;33824;51.600;5.718;2023-11-21T03:36:52;50.00;;;8.35;;
48052;SDS011;33824;51.600;5.718;2023-11-21T03:39:21;41.13;;;7.10;;
48052;SDS011;33824;51.600;5.718;2023-11-21T03:41:47;83.32;;;7.72;;
48052;SDS011;33824;51.600;5.718;2023-11-21T03:44:13;53.10;;;8.50;;
48052;SDS011;33824;51.600;5.718;2023-11-21T03:46:39;39.65;;;7.68;;
48052;SDS011;33824;51.600;5.718;2023-11-21T03:49:05;53.97;;;7.78;;
48052;SDS011;33824;51.600;5.718;2023-11-21T03:51:30;64.32;;;8.32;;
48052;SDS011;33824;51.600;5.718;2023-11-21T03:53:56;47.17;;;8.20;;
48052;SDS011;33824;51.600;5.718;2023-11-21T03:56:22;55.40;;;9.00;;
48052;SDS011;33824;51.600;5.718;2023-11-21T03:58:48;54.05;;;8.90;;
48052;SDS011;33824;51.600;5.718;2023-11-21T04:01:20;43.83;;;7.95;;
48052;SDS011;33824;51.600;5.718;2023-11-21T04:03:47;42.50;;;7.97;;
48052;SDS011;33824;51.600;5.718;2023-11-21T04:06:13;62.10;;;8.25;;
48052;SDS011;33824;51.600;5.718;2023-11-21T04:08:38;43.60;;;7.75;;
48052;SDS011;33824;51.600;5.718;2023-11-21T04:11:04;47.78;;;8.32;;
48052;SDS011;33824;51.600;5.718;2023-11-21T04:13:29;62.67;;;7.60;;
48052;SDS011;33824;51.600;5.718;2023-11-21T04:15:55;42.03;;;7.95;;
48052;SDS011;33824;51.600;5.718;2023-11-21T04:18:21;58.58;;;8.57;;
48052;SDS011;33824;51.600;5.718;2023-11-21T04:20:50;55.40;;;7.95;;
48052;SDS011;33824;51.600;5.718;2023-11-21T04:23:16;45.80;;;7.63;;
48052;SDS011;33824;51.600;5.718;2023-11-21T04:25:41;82.60;;;7.82;;
48052;SDS011;33824;51.600;5.718;2023-11-21T04:28:07;88.53;;;8.23;;
48052;SDS011;33824;51.600;5.718;2023-11-21T04:30:32;44.78;;;7.43;;
48052;SDS011;33824;51.600;5.718;2023-11-21T04:32:58;59.72;;;7.07;;
48052;SDS011;33824;51.600;5.718;2023-11-21T04:35:23;99.38;;;7.75;;
48052;SDS011;33824;51.600;5.718;2023-11-21T04:37:49;108.32;;;8.13;;
48052;SDS011;33824;51.600;5.718;2023-11-21T04:40:16;72.30;;;7.75;;
48052;SDS011;33824;51.600;5.718;2023-11-21T04:42:42;91.57;;;7.13;;
48052;SDS011;33824;51.600;5.718;2023-11-21T04:45:07;88.70;;;6.93;;
48052;SDS011;33824;51.600;5.718;2023-11-21T04:47:35;66.18;;;7.20;;
48052;SDS011;33824;51.600;5.718;2023-11-21T04:50:01;54.15;;;7.00;;
48052;SDS011;33824;51.600;5.718;2023-11-21T04:52:28;77.07;;;7.45;;
48052;SDS011;33824;51.600;5.718;2023-11-21T04:54:54;71.82;;;7.80;;
48052;SDS011;33824;51.600;5.718;2023-11-21T04:57:20;77.35;;;7.18;;
48052;SDS011;33824;51.600;5.718;2023-11-21T04:59:47;76.95;;;7.97;;
48052;SDS011;33824;51.600;5.718;2023-11-21T05:02:14;47.78;;;7.28;;
48052;SDS011;33824;51.600;5.718;2023-11-21T05:04:39;68.22;;;7.40;;
48052;SDS011;33824;51.600;5.718;2023-11-21T05:07:05;57.67;;;6.55;;
48052;SDS011;33824;51.600;5.718;2023-11-21T05:09:30;43.65;;;7.40;;
48052;SDS011;33824;51.600;5.718;2023-11-21T05:11:57;48.17;;;6.68;;
48052;SDS011;33824;51.600;5.718;2023-11-21T05:14:23;16.23;;;6.80;;
48052;SDS011;33824;51.600;5.718;2023-11-21T05:16:49;39.75;;;6.90;;
48052;SDS011;33824;51.600;5.718;2023-11-21T05:19:16;42.97;;;6.82;;
48052;SDS011;33824;51.600;5.718;2023-11-21T05:21:44;32.28;;;6.95;;
48052;SDS011;33824;51.600;5.718;2023-11-21T05:24:10;35.92;;;6.60;;
48052;SDS011;33824;51.600;5.718;2023-11-21T05:26:35;32.90;;;7.22;;
48052;SDS011;33824;51.600;5.718;2023-11-21T05:29:01;20.75;;;6.38;;
48052;SDS011;33824;51.600;5.718;2023-11-21T05:31:27;34.80;;;6.55;;
48052;SDS011;33824;51.600;5.718;2023-11-21T05:33:52;28.52;;;6.70;;
48052;SDS011;33824;51.600;5.718;2023-11-21T05:36:18;43.97;;;7.35;;
48052;SDS011;33824;51.600;5.718;2023-11-21T05:38:43;29.35;;;7.13;;
48052;SDS011;33824;51.600;5.718;2023-11-21T05:41:09;46.75;;;7.63;;
48052;SDS011;33824;51.600;5.718;2023-11-21T05:43:38;18.20;;;7.53;;
48052;SDS011;33824;51.600;5.718;2023-11-21T05:46:05;33.63;;;7.93;;
48052;SDS011;33824;51.600;5.718;2023-11-21T05:48:32;23.70;;;7.10;;
48052;SDS011;33824;51.600;5.718;2023-11-21T05:50:58;22.52;;;8.27;;
48052;SDS011;33824;51.600;5.718;2023-11-21T05:53:24;25.38;;;7.55;;
48052;SDS011;33824;51.600;5.718;2023-11-21T05:55:51;29.75;;;8.63;;
48052;SDS011;33824;51.600;5.718;2023-11-21T05:58:16;15.02;;;7.13;;
48052;SDS011;33824;51.600;5.718;2023-11-21T06:00:42;13.60;;;7.50;;
48052;SDS011;33824;51.600;5.718;2023-11-21T06:03:07;17.02;;;7.38;;
48052;SDS011;33824;51.600;5.718;2023-11-21T06:05:33;21.83;;;8.27;;
48052;SDS011;33824;51.600;5.718;2023-11-21T06:07:59;12.88;;;7.70;;
48052;SDS011;33824;51.600;5.718;2023-11-21T06:10:26;18.63;;;8.23;;
48052;SDS011;33824;51.600;5.718;2023-11-21T06:12:52;21.65;;;8.15;;
48052;SDS011;33824;51.600;5.718;2023-11-21T06:15:18;22.48;;;8.40;;
48052;SDS011;33824;51.600;5.718;2023-11-21T06:17:45;21.17;;;8.30;;
48052;SDS011;33824;51.600;5.718;2023-11-21T06:20:14;17.35;;;9.40;;
48052;SDS011;33824;51.600;5.718;2023-11-21T06:22:43;19.77;;;8.60;;
48052;SDS011;33824;51.600;5.718;2023-11-21T06:25:10;15.10;;;9.18;;
48052;SDS011;33824;51.600;5.718;2023-11-21T06:27:47;16.13;;;8.45;;
48052;SDS011;33824;51.600;5.718;2023-11-21T06:30:14;13.50;;;8.07;;
48052;SDS011;33824;51.600;5.718;2023-11-21T06:32:40;18.52;;;8.70;;
48052;SDS011;33824;51.600;5.718;2023-11-21T06:35:07;16.13;;;8.23;;
48052;SDS011;33824;51.600;5.718;2023-11-21T06:37:35;18.73;;;9.25;;
48052;SDS011;33824;51.600;5.718;2023-11-21T06:40:01;16.23;;;8.85;;
48052;SDS011;33824;51.600;5.718;2023-11-21T06:42:29;20.75;;;9.68;;
48052;SDS011;33824;51.600;5.718;2023-11-21T06:44:55;17.75;;;8.40;;
48052;SDS011;33824;51.600;5.718;2023-11-21T06:47:25;15.65;;;8.88;;
48052;SDS011;33824;51.600;5.718;2023-11-21T06:49:54;15.60;;;8.38;;
48052;SDS011;33824;51.600;5.718;2023-11-21T06:52:20;18.88;;;9.55;;
48052;SDS011;33824;51.600;5.718;2023-11-21T06:54:46;15.20;;;8.05;;
48052;SDS011;33824;51.600;5.718;2023-11-21T06:57:15;16.70;;;9.15;;
48052;SDS011;33824;51.600;5.718;2023-11-21T06:59:41;18.52;;;8.88;;
48052;SDS011;33824;51.600;5.718;2023-11-21T07:02:06;15.60;;;9.23;;
48052;SDS011;33824;51.600;5.718;2023-11-21T07:04:33;17.90;;;9.20;;
48052;SDS011;33824;51.600;5.718;2023-11-21T07:06:58;16.13;;;9.18;;
48052;SDS011;33824;51.600;5.718;2023-11-21T07:09:24;18.23;;;9.40;;
48052;SDS011;33824;51.600;5.718;2023-11-21T07:11:51;19.90;;;8.93;;
48052;SDS011;33824;51.600;5.718;2023-11-21T07:14:17;20.05;;;9.15;;
48052;SDS011;33824;51.600;5.718;2023-11-21T07:16:44;15.13;;;8.02;;
48052;SDS011;33824;51.600;5.718;2023-11-21T07:19:11;14.50;;;8.27;;
48052;SDS011;33824;51.600;5.718;2023-11-21T07:21:37;18.75;;;9.65;;
48052;SDS011;33824;51.600;5.718;2023-11-21T07:24:04;16.88;;;8.90;;
48052;SDS011;33824;51.600;5.718;2023-11-21T07:26:32;22.00;;;10.02;;
48052;SDS011;33824;51.600;5.718;2023-11-21T07:29:01;23.08;;;9.70;;
48052;SDS011;33824;51.600;5.718;2023-11-21T07:31:28;18.40;;;9.80;;
48052;SDS011;33824;51.600;5.718;2023-11-21T07:33:54;19.63;;;9.93;;
48052;SDS011;33824;51.600;5.718;2023-11-21T07:36:22;26.08;;;9.77;;
48052;SDS011;33824;51.600;5.718;2023-11-21T07:38:49;20.30;;;9.95;;
48052;SDS011;33824;51.600;5.718;2023-11-21T07:41:15;27.58;;;9.90;;
48052;SDS011;33824;51.600;5.718;2023-11-21T07:43:41;19.48;;;9.82;;
48052;SDS011;33824;51.600;5.718;2023-11-21T07:46:07;21.63;;;10.07;;
48052;SDS011;33824;51.600;5.718;2023-11-21T07:48:33;18.55;;;9.23;;
48052;SDS011;33824;51.600;5.718;2023-11-21T07:50:59;20.73;;;9.07;;
48052;SDS011;33824;51.600;5.718;2023-11-21T07:53:26;14.48;;;8.63;;
48052;SDS011;33824;51.600;5.718;2023-11-21T07:56:04;18.48;;;9.57;;
48052;SDS011;33824;51.600;5.718;2023-11-21T07:58:33;17.92;;;8.50;;
48052;SDS011;33824;51.600;5.718;2023-11-21T08:00:59;16.88;;;8.70;;
48052;SDS011;33824;51.600;5.718;2023-11-21T08:03:25;17.35;;;9.15;;
48052;SDS011;33824;51.600;5.718;2023-11-21T08:05:58;22.33;;;9.40;;
48052;SDS011;33824;51.600;5.718;2023-11-21T08:08:25;19.45;;;9.70;;
48052;SDS011;33824;51.600;5.718;2023-11-21T08:10:51;17.52;;;9.10;;
48052;SDS011;33824;51.600;5.718;2023-11-21T08:13:24;23.35;;;8.43;;
48052;SDS011;33824;51.600;5.718;2023-11-21T08:15:50;17.63;;;8.63;;
48052;SDS011;33824;51.600;5.718;2023-11-21T08:18:19;17.33;;;8.60;;
48052;SDS011;33824;51.600;5.718;2023-11-21T08:20:44;14.95;;;7.65;;
48052;SDS011;33824;51.600;5.718;2023-11-21T08:23:14;18.55;;;8.40;;
48052;SDS011;33824;51.600;5.718;2023-11-21T08:25:41;18.48;;;7.68;;
48052;SDS011;33824;51.600;5.718;2023-11-21T08:28:07;20.13;;;8.60;;
48052;SDS011;33824;51.600;5.718;2023-11-21T08:30:33;15.90;;;8.07;;
48052;SDS011;33824;51.600;5.718;2023-11-21T08:33:00;18.08;;;7.60;;
48052;SDS011;33824;51.600;5.718;2023-11-21T08:35:25;15.55;;;8.27;;
48052;SDS011;33824;51.600;5.718;2023-11-21T08:37:51;15.93;;;7.90;;
48052;SDS011;33824;51.600;5.718;2023-11-21T08:40:18;19.75;;;8.20;;
48052;SDS011;33824;51.600;5.718;2023-11-21T08:42:46;17.63;;;7.97;;
48052;SDS011;33824;51.600;5.718;2023-11-21T08:45:13;14.88;;;8.15;;
48052;SDS011;33824;51.600;5.718;2023-11-21T08:47:43;18.38;;;8.27;;
48052;SDS011;33824;51.600;5.718;2023-11-21T08:50:09;15.18;;;8.57;;
48052;SDS011;33824;51.600;5.718;2023-11-21T08:52:37;17.95;;;8.77;;
48052;SDS011;33824;51.600;5.718;2023-11-21T08:55:06;15.95;;;8.73;;
48052;SDS011;33824;51.600;5.718;2023-11-21T08:57:33;15.75;;;8.70;;
48052;SDS011;33824;51.600;5.718;2023-11-21T09:00:00;17.45;;;8.05;;
48052;SDS011;33824;51.600;5.718;2023-11-21T09:02:26;16.60;;;7.95;;
48052;SDS011;33824;51.600;5.718;2023-11-21T09:04:52;14.00;;;7.88;;
48052;SDS011;33824;51.600;5.718;2023-11-21T09:07:21;20.77;;;9.68;;
48052;SDS011;33824;51.600;5.718;2023-11-21T09:09:47;17.20;;;8.85;;
48052;SDS011;33824;51.600;5.718;2023-11-21T09:12:13;18.25;;;9.23;;
48052;SDS011;33824;51.600;5.718;2023-11-21T09:14:38;14.63;;;7.70;;
48052;SDS011;33824;51.600;5.718;2023-11-21T09:17:05;16.13;;;8.02;;
48052;SDS011;33824;51.600;5.718;2023-11-21T09:19:39;14.15;;;7.75;;
48052;SDS011;33824;51.600;5.718;2023-11-21T09:22:05;14.30;;;7.95;;
48052;SDS011;33824;51.600;5.718;2023-11-21T09:24:33;14.07;;;7.78;;
48052;SDS011;33824;51.600;5.718;2023-11-21T09:27:02;16.10;;;8.10;;
48052;SDS011;33824;51.600;5.718;2023-11-21T09:29:27;16.60;;;8.40;;
48052;SDS011;33824;51.600;5.718;2023-11-21T09:31:54;16.80;;;8.40;;
48052;SDS011;33824;51.600;5.718;2023-11-21T09:34:21;14.15;;;7.93;;
48052;SDS011;33824;51.600;5.718;2023-11-21T09:36:47;18.98;;;8.00;;
48052;SDS011;33824;51.600;5.718;2023-11-21T09:39:13;16.17;;;8.25;;
48052;SDS011;33824;51.600;5.718;2023-11-21T09:41:44;20.23;;;8.70;;
48052;SDS011;33824;51.600;5.718;2023-11-21T09:44:20;24.70;;;9.07;;
48052;SDS011;33824;51.600;5.718;2023-11-21T09:46:50;20.50;;;8.98;;
48052;SDS011;33824;51.600;5.718;2023-11-21T09:49:20;17.45;;;9.40;;
48052;SDS011;33824;51.600;5.718;2023-11-21T09:51:50;18.30;;;10.32;;
48052;SDS011;33824;51.600;5.718;2023-11-21T09:54:19;24.88;;;9.88;;
48052;SDS011;33824;51.600;5.718;2023-11-21T09:56:46;28.70;;;10.27;;
48052;SDS011;33824;51.600;5.718;2023-11-21T09:59:15;23.00;;;9.75;;
48052;SDS011;33824;51.600;5.718;2023-11-21T10:01:41;25.25;;;9.82;;
48052;SDS011;33824;51.600;5.718;2023-11-21T10:04:10;29.05;;;10.85;;
48052;SDS011;33824;51.600;5.718;2023-11-21T10:06:39;29.02;;;10.50;;
48052;SDS011;33824;51.600;5.718;2023-11-21T10:09:11;33.47;;;11.63;;
48052;SDS011;33824;51.600;5.718;2023-11-21T10:11:42;23.45;;;10.48;;
48052;SDS011;33824;51.600;5.718;2023-11-21T10:14:10;26.50;;;11.25;;
48052;SDS011;33824;51.600;5.718;2023-11-21T10:16:39;23.30;;;10.60;;
48052;SDS011;33824;51.600;5.718;2023-11-21T10:19:05;21.25;;;10.80;;
48052;SDS011;33824;51.600;5.718;2023-11-21T10:21:35;24.15;;;11.15;;
48052;SDS011;33824;51.600;5.718;2023-11-21T10:24:00;21.45;;;10.15;;
48052;SDS011;33824;51.600;5.718;2023-11-21T10:26:26;20.98;;;9.75;;
48052;SDS011;33824;51.600;5.718;2023-11-21T10:29:00;22.52;;;9.50;;
48052;SDS011;33824;51.600;5.718;2023-11-21T10:31:32;24.15;;;10.35;;
48052;SDS011;33824;51.600;5.718;2023-11-21T10:34:14;27.73;;;13.00;;
48052;SDS011;33824;51.600;5.718;2023-11-21T10:36:41;22.80;;;10.07;;
48052;SDS011;33824;51.600;5.718;2023-11-21T10:39:07;22.02;;;9.77;;
48052;SDS011;33824;51.600;5.718;2023-11-21T10:41:33;20.77;;;9.80;;
48052;SDS011;33824;51.600;5.718;2023-11-21T10:44:00;22.42;;;10.30;;
48052;SDS011;33824;51.600;5.718;2023-11-21T10:46:31;21.40;;;9.57;;
48052;SDS011;33824;51.600;5.718;2023-11-21T10:48:57;24.77;;;10.95;;
48052;SDS011;33824;51.600;5.718;2023-11-21T10:51:23;20.85;;;10.65;;
48052;SDS011;33824;51.600;5.718;2023-11-21T10:53:51;32.95;;;11.50;;
48052;SDS011;33824;51.600;5.718;2023-11-21T10:56:18;25.20;;;10.55;;
48052;SDS011;33824;51.600;5.718;2023-11-21T10:58:45;27.25;;;11.15;;
48052;SDS011;33824;51.600;5.718;2023-11-21T11:01:11;32.25;;;11.38;;
48052;SDS011;33824;51.600;5.718;2023-11-21T11:03:39;29.60;;;10.43;;
48052;SDS011;33824;51.600;5.718;2023-11-21T11:06:06;28.50;;;11.05;;
48052;SDS011;33824;51.600;5.718;2023-11-21T11:08:39;23.40;;;10.00;;
48052;SDS011;33824;51.600;5.718;2023-11-21T11:11:06;26.50;;;10.65;;
48052;SDS011;33824;51.600;5.718;2023-11-21T11:13:32;43.75;;;11.45;;
48052;SDS011;33824;51.600;5.718;2023-11-21T11:15:59;28.75;;;11.90;;
48052;SDS011;33824;51.600;5.718;2023-11-21T11:18:29;31.45;;;11.30;;
48052;SDS011;33824;51.600;5.718;2023-11-21T11:20:58;31.92;;;11.15;;
48052;SDS011;33824;51.600;5.718;2023-11-21T11:23:37;26.80;;;11.43;;
48052;SDS011;33824;51.600;5.718;2023-11-21T11:26:37;23.38;;;11.40;;
48052;SDS011;33824;51.600;5.718;2023-11-21T11:29:20;25.52;;;12.00;;
48052;SDS011;33824;51.600;5.718;2023-11-21T11:34:46;26.00;;;11.85;;
48052;SDS011;33824;51.600;5.718;2023-11-21T11:37:19;29.00;;;13.65;;
48052;SDS011;33824;51.600;5.718;2023-11-21T11:39:45;25.60;;;12.10;;
48052;SDS011;33824;51.600;5.718;2023-11-21T11:42:15;24.48;;;12.15;;
48052;SDS011;33824;51.600;5.718;2023-11-21T11:47:15;27.52;;;12.82;;
48052;SDS011;33824;51.600;5.718;2023-11-21T11:52:45;21.52;;;11.10;;
48052;SDS011;33824;51.600;5.718;2023-11-21T11:55:13;19.77;;;10.85;;
48052;SDS011;33824;51.600;5.718;2023-11-21T11:57:40;18.48;;;10.05;;
48052;SDS011;33824;51.600;5.718;2023-11-21T12:00:10;21.73;;;11.27;;
48052;SDS011;33824;51.600;5.718;2023-11-21T12:02:39;21.77;;;11.43;;
48052;SDS011;33824;51.600;5.718;2023-11-21T12:05:09;22.40;;;11.82;;
48052;SDS011;33824;51.600;5.718;2023-11-21T12:07:52;23.70;;;9.90;;
48052;SDS011;33824;51.600;5.718;2023-11-21T12:10:29;23.70;;;11.18;;
48052;SDS011;33824;51.600;5.718;2023-11-21T12:12:56;20.00;;;10.18;;
48052;SDS011;33824;51.600;5.718;2023-11-21T12:15:23;20.75;;;9.77;;
48052;SDS011;33824;51.600;5.718;2023-11-21T12:17:51;20.17;;;10.75;;
48052;SDS011;33824;51.600;5.718;2023-11-21T12:20:21;20.00;;;10.38;;
48052;SDS011;33824;51.600;5.718;2023-11-21T12:22:51;18.23;;;9.40;;
48052;SDS011;33824;51.600;5.718;2023-11-21T12:25:21;19.77;;;10.65;;
48052;SDS011;33824;51.600;5.718;2023-11-21T12:27:48;19.73;;;9.68;;
48052;SDS011;33824;51.600;5.718;2023-11-21T12:30:15;21.58;;;9.52;;
48052;SDS011;33824;51.600;5.718;2023-11-21T12:32:43;21.27;;;9.90;;
48052;SDS011;33824;51.600;5.718;2023-11-21T12:35:09;22.23;;;10.82;;
48052;SDS011;33824;51.600;5.718;2023-11-21T12:37:40;20.02;;;9.90;;
48052;SDS011;33824;51.600;5.718;2023-11-21T12:40:09;20.30;;;9.82;;
48052;SDS011;33824;51.600;5.718;2023-11-21T12:42:47;22.08;;;10.30;;
48052;SDS011;33824;51.600;5.718;2023-11-21T12:47:55;28.10;;;11.32;;
48052;SDS011;33824;51.600;5.718;2023-11-21T12:50:25;25.05;;;11.68;;
48052;SDS011;33824;51.600;5.718;2023-11-21T12:53:01;31.10;;;12.00;;
48052;SDS011;33824;51.600;5.718;2023-11-21T12:55:33;26.45;;;10.95;;
48052;SDS011;33824;51.600;5.718;2023-11-21T12:58:03;25.45;;;11.68;;
48052;SDS011;33824;51.600;5.718;2023-11-21T13:00:35;33.33;;;12.98;;
48052;SDS011;33824;51.600;5.718;2023-11-21T13:03:07;35.67;;;11.45;;
48052;SDS011;33824;51.600;5.718;2023-11-21T13:05:35;28.23;;;12.35;;
48052;SDS011;33824;51.600;5.718;2023-11-21T13:08:04;25.50;;;12.13;;
48052;SDS011;33824;51.600;5.718;2023-11-21T13:10:33;26.70;;;12.38;;
48052;SDS011;33824;51.600;5.718;2023-11-21T13:13:02;28.38;;;12.30;;
48052;SDS011;33824;51.600;5.718;2023-11-21T13:15:30;24.77;;;11.73;;
48052;SDS011;33824;51.600;5.718;2023-11-21T13:17:58;25.05;;;11.90;;
48052;SDS011;33824;51.600;5.718;2023-11-21T13:20:27;26.45;;;10.52;;
48052;SDS011;33824;51.600;5.718;2023-11-21T13:22:54;24.38;;;11.20;;
48052;SDS011;33824;51.600;5.718;2023-11-21T13:25:27;22.55;;;11.38;;
48052;SDS011;33824;51.600;5.718;2023-11-21T13:27:54;25.80;;;11.07;;
48052;SDS011;33824;51.600;5.718;2023-11-21T13:30:20;21.42;;;10.15;;
48052;SDS011;33824;51.600;5.718;2023-11-21T13:33:02;20.70;;;9.98;;
48052;SDS011;33824;51.600;5.718;2023-11-21T13:35:33;20.90;;;10.27;;
48052;SDS011;33824;51.600;5.718;2023-11-21T13:38:13;19.80;;;9.82;;
48052;SDS011;33824;51.600;5.718;2023-11-21T13:40:40;22.33;;;10.43;;
48052;SDS011;33824;51.600;5.718;2023-11-21T13:43:12;23.15;;;11.10;;
48052;SDS011;33824;51.600;5.718;2023-11-21T13:45:39;21.35;;;10.75;;
48052;SDS011;33824;51.600;5.718;2023-11-21T13:48:06;21.52;;;10.80;;
48052;SDS011;33824;51.600;5.718;2023-11-21T13:50:38;22.23;;;11.02;;
48052;SDS011;33824;51.600;5.718;2023-11-21T13:53:10;19.83;;;10.20;;
48052;SDS011;33824;51.600;5.718;2023-11-21T13:55:54;23.35;;;9.98;;
48052;SDS011;33824;51.600;5.718;2023-11-21T13:58:20;20.73;;;10.13;;
48052;SDS011;33824;51.600;5.718;2023-11-21T14:01:00;18.83;;;10.07;;
48052;SDS011;33824;51.600;5.718;2023-11-21T14:03:31;19.52;;;8.90;;
48052;SDS011;33824;51.600;5.718;2023-11-21T14:06:09;18.08;;;9.60;;
48052;SDS011;33824;51.600;5.718;2023-11-21T14:08:40;14.55;;;8.00;;
48052;SDS011;33824;51.600;5.718;2023-11-21T14:11:07;17.27;;;8.75;;
48052;SDS011;33824;51.600;5.718;2023-11-21T14:13:33;16.15;;;8.38;;
48052;SDS011;33824;51.600;5.718;2023-11-21T14:15:58;15.30;;;7.88;;
48052;SDS011;33824;51.600;5.718;2023-11-21T14:18:27;13.70;;;7.57;;
48052;SDS011;33824;51.600;5.718;2023-11-21T14:21:01;15.07;;;7.32;;
48052;SDS011;33824;51.600;5.718;2023-11-21T14:23:27;11.95;;;6.78;;
48052;SDS011;33824;51.600;5.718;2023-11-21T14:25:53;13.48;;;6.82;;
48052;SDS011;33824;51.600;5.718;2023-11-21T14:28:19;10.63;;;5.82;;
48052;SDS011;33824;51.600;5.718;2023-11-21T14:30:46;13.60;;;5.85;;
48052;SDS011;33824;51.600;5.718;2023-11-21T14:33:12;14.43;;;5.70;;
48052;SDS011;33824;51.600;5.718;2023-11-21T14:35:38;7.13;;;3.53;;
48052;SDS011;33824;51.600;5.718;2023-11-21T14:38:04;7.70;;;4.75;;
48052;SDS011;33824;51.600;5.718;2023-11-21T14:40:33;10.82;;;5.22;;
48052;SDS011;33824;51.600;5.718;2023-11-21T14:43:00;12.95;;;6.78;;
48052;SDS011;33824;51.600;5.718;2023-11-21T14:45:26;12.90;;;7.03;;